createdAt,value
2017-05-20T00:00:03.641Z,33.93
2017-05-20T00:02:30.329Z,34.43
2017-05-20T00:04:57.036Z,34.98
2017-05-20T00:07:23.716Z,35.90
2017-05-20T00:09:50.420Z,35.75
2017-05-20T00:12:17.105Z,29.92
2017-05-20T00:14:43.829Z,33.53
2017-05-20T00:17:10.517Z,32.12
2017-05-20T00:19:37.201Z,30.55
2017-05-20T00:22:03.886Z,29.15
2017-05-20T00:24:30.576Z,28.92
2017-05-20T00:26:57.293Z,28.07
2017-05-20T00:29:23.982Z,25.63
2017-05-20T00:31:50.701Z,26.07
2017-05-20T00:34:17.383Z,25.17
2017-05-20T00:36:44.094Z,24.52
2017-05-20T00:39:10.768Z,25.72
2017-05-20T00:41:37.454Z,22.47
2017-05-20T00:44:04.145Z,24.43
2017-05-20T00:46:30.829Z,22.52
2017-05-20T00:48:57.552Z,22.88
2017-05-20T00:51:24.236Z,22.30
2017-05-20T00:53:50.943Z,22.72
2017-05-20T00:56:17.632Z,23.68
2017-05-20T00:58:44.350Z,23.93
2017-05-20T01:01:11.041Z,22.65
2017-05-20T01:03:37.728Z,21.35
2017-05-20T01:06:04.416Z,21.20
2017-05-20T01:08:31.100Z,22.52
2017-05-20T01:10:57.812Z,23.83
2017-05-20T01:13:24.493Z,23.17
2017-05-20T01:15:51.204Z,22.77
2017-05-20T01:18:17.895Z,24.48
2017-05-20T01:20:44.610Z,24.98
2017-05-20T01:23:11.289Z,22.47
2017-05-20T01:25:37.969Z,25.60
2017-05-20T01:28:04.652Z,26.18
2017-05-20T01:30:31.341Z,25.48
2017-05-20T01:32:58.042Z,27.20
2017-05-20T01:35:24.737Z,26.85
2017-05-20T01:37:51.445Z,27.32
2017-05-20T01:40:18.132Z,29.73
2017-05-20T01:42:44.821Z,29.78
2017-05-20T01:45:11.500Z,31.45
2017-05-20T01:47:38.189Z,29.53
2017-05-20T01:50:05.164Z,31.62
2017-05-20T01:52:31.849Z,31.33
2017-05-20T01:54:58.557Z,35.50
2017-05-20T01:57:25.241Z,35.03
2017-05-20T01:59:51.930Z,33.78
2017-05-20T02:02:18.609Z,35.43
2017-05-20T02:04:45.305Z,36.83
2017-05-20T02:07:11.991Z,35.60
2017-05-20T02:09:38.680Z,38.72
2017-05-20T02:12:05.389Z,39.05
2017-05-20T02:14:32.078Z,39.83
2017-05-20T02:16:58.784Z,41.15
2017-05-20T02:19:25.474Z,37.58
2017-05-20T02:21:52.160Z,40.30
2017-05-20T02:24:18.847Z,42.60
2017-05-20T02:26:45.533Z,39.82
2017-05-20T02:29:12.229Z,39.33
2017-05-20T02:31:38.912Z,42.55
2017-05-20T02:34:05.620Z,41.23
2017-05-20T02:36:32.303Z,44.17
2017-05-20T02:38:59.002Z,39.37
2017-05-20T02:41:25.693Z,42.87
2017-05-20T02:43:52.378Z,42.82
2017-05-20T02:46:19.060Z,46.05
2017-05-20T02:48:45.741Z,42.48
2017-05-20T02:51:12.428Z,42.42
2017-05-20T02:53:39.121Z,45.10
2017-05-20T02:56:05.808Z,42.13
2017-05-20T02:58:32.523Z,41.97
2017-05-20T03:00:59.209Z,41.25
2017-05-20T03:03:25.918Z,42.68
2017-05-20T03:05:52.607Z,43.57
2017-05-20T03:08:19.298Z,43.12
2017-05-20T03:10:45.977Z,44.27
2017-05-20T03:13:12.668Z,42.63
2017-05-20T03:15:39.374Z,41.52
2017-05-20T03:18:06.056Z,38.95
2017-05-20T03:20:32.769Z,40.23
2017-05-20T03:22:59.454Z,40.03
2017-05-20T03:25:26.144Z,39.98
2017-05-20T03:27:52.830Z,38.70
2017-05-20T03:30:19.513Z,40.52
2017-05-20T03:32:46.193Z,38.65
2017-05-20T03:35:12.876Z,41.83
2017-05-20T03:37:39.589Z,42.00
2017-05-20T03:40:06.277Z,42.72
2017-05-20T03:42:32.978Z,41.10
2017-05-20T03:44:59.662Z,39.20
2017-05-20T03:47:26.352Z,39.33
2017-05-20T03:49:53.033Z,38.80
2017-05-20T03:52:19.722Z,40.27
2017-05-20T03:54:46.403Z,38.88
2017-05-20T03:57:13.142Z,37.58
2017-05-20T03:59:39.852Z,39.77
2017-05-20T04:02:06.539Z,37.30
2017-05-20T04:04:33.231Z,39.97
2017-05-20T04:06:59.913Z,42.93
2017-05-20T04:09:26.606Z,38.32
2017-05-20T04:11:53.288Z,37.47
2017-05-20T04:14:19.979Z,38.32
2017-05-20T04:16:46.661Z,39.68
2017-05-20T04:19:13.354Z,38.23
2017-05-20T04:21:40.037Z,39.05
2017-05-20T04:24:06.722Z,41.20
2017-05-20T04:26:33.443Z,40.18
2017-05-20T04:29:00.135Z,39.97
2017-05-20T04:31:26.816Z,42.30
2017-05-20T04:33:53.516Z,40.48
2017-05-20T04:36:20.208Z,41.42
2017-05-20T04:38:46.898Z,42.32
2017-05-20T04:41:13.580Z,42.97
2017-05-20T04:43:40.277Z,39.23
2017-05-20T04:46:06.958Z,42.23
2017-05-20T04:48:33.644Z,41.00
2017-05-20T04:51:00.320Z,43.93
2017-05-20T04:53:27.050Z,42.55
2017-05-20T04:55:53.734Z,41.37
2017-05-20T04:58:20.428Z,42.80
2017-05-20T05:00:47.114Z,41.82
2017-05-20T05:03:13.801Z,43.73
2017-05-20T05:05:40.492Z,43.58
2017-05-20T05:08:07.186Z,41.23
2017-05-20T05:10:33.865Z,41.73
2017-05-20T05:13:00.560Z,41.57
2017-05-20T05:15:27.281Z,41.43
2017-05-20T05:17:53.965Z,41.48
2017-05-20T05:20:20.652Z,41.52
2017-05-20T05:22:47.335Z,40.30
2017-05-20T05:25:14.016Z,38.23
2017-05-20T05:27:40.706Z,40.02
2017-05-20T05:30:07.397Z,34.60
2017-05-20T05:32:34.077Z,36.63
2017-05-20T05:35:00.757Z,37.20
2017-05-20T05:37:27.789Z,33.76
2017-05-20T05:39:54.481Z,35.80
2017-05-20T05:42:21.165Z,34.34
2017-05-20T05:44:47.849Z,33.02
2017-05-20T05:47:14.530Z,34.78
2017-05-20T05:49:41.219Z,34.14
2017-05-20T05:52:07.907Z,33.60
2017-05-20T05:54:34.596Z,30.82
2017-05-20T05:57:01.283Z,30.70
2017-05-20T05:59:28.005Z,30.60
2017-05-20T06:01:54.716Z,28.46
2017-05-20T06:04:21.419Z,28.16
2017-05-20T06:06:48.144Z,29.96
2017-05-20T06:09:14.845Z,27.88
2017-05-20T06:11:41.537Z,27.42
2017-05-20T06:14:08.241Z,27.32
2017-05-20T06:16:34.929Z,28.08
2017-05-20T06:19:01.661Z,24.88
2017-05-20T06:21:28.342Z,27.60
2017-05-20T06:23:55.057Z,26.38
2017-05-20T06:26:21.756Z,23.86
2017-05-20T06:28:48.480Z,25.88
2017-05-20T06:31:15.173Z,24.02
2017-05-20T06:33:41.890Z,22.90
2017-05-20T06:36:08.596Z,25.12
2017-05-20T06:38:35.285Z,24.66
2017-05-20T06:41:01.966Z,24.86
2017-05-20T06:43:28.665Z,23.12
2017-05-20T06:45:55.385Z,23.20
2017-05-20T06:48:22.091Z,23.84
2017-05-20T06:50:48.807Z,23.54
2017-05-20T06:53:15.501Z,25.44
2017-05-20T06:55:42.199Z,23.42
2017-05-20T06:58:08.898Z,23.44
2017-05-20T07:00:35.606Z,23.00
2017-05-20T07:03:02.316Z,23.06
2017-05-20T07:05:29.017Z,22.00
2017-05-20T07:07:55.725Z,22.64
2017-05-20T07:10:22.413Z,22.54
2017-05-20T07:12:49.102Z,21.06
2017-05-20T07:15:15.789Z,23.38
2017-05-20T07:17:42.476Z,22.58
2017-05-20T07:20:09.185Z,21.58
2017-05-20T07:22:35.885Z,21.74
2017-05-20T07:25:02.641Z,21.30
2017-05-20T07:27:29.324Z,21.24
2017-05-20T07:29:56.043Z,18.58
2017-05-20T07:32:22.741Z,18.34
2017-05-20T07:34:49.425Z,17.52
2017-05-20T07:37:16.118Z,18.26
2017-05-20T07:39:42.823Z,18.62
2017-05-20T07:42:09.525Z,21.30
2017-05-20T07:44:36.214Z,18.66
2017-05-20T07:47:02.928Z,18.14
2017-05-20T07:49:29.617Z,17.98
2017-05-20T07:51:56.400Z,17.42
2017-05-20T07:54:23.088Z,19.30
2017-05-20T07:56:49.782Z,17.18
2017-05-20T07:59:16.464Z,16.94
2017-05-20T08:01:43.152Z,14.40
2017-05-20T08:04:09.844Z,17.28
2017-05-20T08:06:36.536Z,13.84
2017-05-20T08:09:03.264Z,14.68
2017-05-20T08:11:29.952Z,13.48
2017-05-20T08:13:56.645Z,15.18
2017-05-20T08:16:23.330Z,14.58
2017-05-20T08:18:50.023Z,13.78
2017-05-20T08:21:16.722Z,11.46
2017-05-20T08:23:43.408Z,13.04
2017-05-20T08:26:10.114Z,11.20
2017-05-20T08:28:36.798Z,12.82
2017-05-20T08:31:03.512Z,13.32
2017-05-20T08:33:30.204Z,13.32
2017-05-20T08:35:56.885Z,11.92
2017-05-20T08:38:23.582Z,13.48
2017-05-20T08:40:50.276Z,13.28
2017-05-20T08:43:16.977Z,11.84
2017-05-20T08:45:43.661Z,13.66
2017-05-20T08:48:10.354Z,12.78
2017-05-20T08:50:37.038Z,13.08
2017-05-20T08:53:03.752Z,10.44
2017-05-20T08:55:30.432Z,13.04
2017-05-20T08:57:57.120Z,13.68
2017-05-20T09:00:23.809Z,13.70
2017-05-20T09:02:50.493Z,12.14
2017-05-20T09:05:17.183Z,11.70
2017-05-20T09:07:43.867Z,10.88
2017-05-20T09:10:10.555Z,9.30
2017-05-20T09:12:37.241Z,10.28
2017-05-20T09:15:03.932Z,10.94
2017-05-20T09:17:30.612Z,13.38
2017-05-20T09:19:57.339Z,11.92
2017-05-20T09:22:24.025Z,12.28
2017-05-20T09:24:50.720Z,11.62
2017-05-20T09:27:17.395Z,13.12
2017-05-20T09:29:44.077Z,11.50
2017-05-20T09:32:10.779Z,10.52
2017-05-20T09:34:37.476Z,11.46
2017-05-20T09:37:04.182Z,11.28
2017-05-20T09:39:30.867Z,11.00
2017-05-20T09:41:57.600Z,11.04
2017-05-20T09:44:24.285Z,10.90
2017-05-20T09:46:50.968Z,11.20
2017-05-20T09:49:17.654Z,9.80
2017-05-20T09:51:46.620Z,10.42
2017-05-20T09:54:13.352Z,10.18
2017-05-20T09:56:40.145Z,11.90
2017-05-20T09:59:06.833Z,11.26
2017-05-20T10:01:33.509Z,13.00
2017-05-20T10:04:00.201Z,12.86
2017-05-20T10:06:26.894Z,11.88
2017-05-20T10:08:53.614Z,10.52
2017-05-20T10:11:20.357Z,9.76
2017-05-20T10:13:47.044Z,9.28
2017-05-20T10:16:13.717Z,9.14
2017-05-20T10:18:40.425Z,9.68
2017-05-20T10:21:07.104Z,9.34
2017-05-20T10:23:33.792Z,9.58
2017-05-20T10:26:00.489Z,10.62
2017-05-20T10:28:27.173Z,10.74
2017-05-20T10:30:53.876Z,10.62
2017-05-20T10:33:20.566Z,12.28
2017-05-20T10:35:47.282Z,11.26
2017-05-20T10:38:13.998Z,10.06
2017-05-20T10:40:40.677Z,9.24
2017-05-20T10:43:07.360Z,8.22
2017-05-20T10:45:34.036Z,8.18
2017-05-20T10:48:00.712Z,9.36
2017-05-20T10:50:27.386Z,8.16
2017-05-20T10:52:54.059Z,9.08
2017-05-20T10:55:20.770Z,9.18
2017-05-20T10:57:47.450Z,8.32
2017-05-20T11:00:14.168Z,7.80
2017-05-20T11:02:40.837Z,8.82
2017-05-20T11:05:07.516Z,9.10
2017-05-20T11:07:34.196Z,9.12
2017-05-20T11:10:00.875Z,8.68
2017-05-20T11:12:27.553Z,7.62
2017-05-20T11:14:54.225Z,7.12
2017-05-20T11:17:20.928Z,6.48
2017-05-20T11:19:47.602Z,6.74
2017-05-20T11:22:14.298Z,8.30
2017-05-20T11:24:40.967Z,7.04
2017-05-20T11:27:07.640Z,6.84
2017-05-20T11:29:34.315Z,8.58
2017-05-20T11:32:00.984Z,7.46
2017-05-20T11:34:27.728Z,7.08
2017-05-20T11:36:54.397Z,6.64
2017-05-20T11:39:21.112Z,10.20
2017-05-20T11:41:47.800Z,7.74
2017-05-20T11:44:14.478Z,7.62
2017-05-20T11:46:41.149Z,6.84
2017-05-20T11:49:07.822Z,6.64
2017-05-20T11:51:34.490Z,5.80
2017-05-20T11:54:01.172Z,6.18
2017-05-20T11:56:27.840Z,5.50
2017-05-20T11:58:54.512Z,5.38
2017-05-20T12:01:21.180Z,5.46
2017-05-20T12:03:47.861Z,5.94
2017-05-20T12:06:14.569Z,5.40
2017-05-20T12:08:41.241Z,5.70
2017-05-20T12:11:07.912Z,5.82
2017-05-20T12:13:34.584Z,5.80
2017-05-20T12:16:01.263Z,5.52
2017-05-20T12:18:27.932Z,5.46
2017-05-20T12:20:54.612Z,5.06
2017-05-20T12:23:21.288Z,5.18
2017-05-20T12:25:47.965Z,6.42
2017-05-20T12:28:14.668Z,7.02
2017-05-20T12:30:41.372Z,5.96
2017-05-20T12:33:08.045Z,5.84
2017-05-20T12:35:34.744Z,5.88
2017-05-20T12:38:01.429Z,6.20
2017-05-20T12:40:28.151Z,6.52
2017-05-20T12:42:54.826Z,7.52
2017-05-20T12:45:21.527Z,7.84
2017-05-20T12:47:48.202Z,7.38
2017-05-20T12:50:14.920Z,6.90
2017-05-20T12:52:41.597Z,7.20
2017-05-20T12:55:08.275Z,6.78
2017-05-20T12:57:34.953Z,5.50
2017-05-20T13:00:01.628Z,4.78
2017-05-20T13:02:28.336Z,5.24
2017-05-20T13:04:55.029Z,7.16
2017-05-20T13:07:21.728Z,7.54
2017-05-20T13:09:48.400Z,7.60
2017-05-20T13:12:15.092Z,6.60
2017-05-20T13:14:41.768Z,7.20
2017-05-20T13:17:08.468Z,6.86
2017-05-20T13:19:35.145Z,6.96
2017-05-20T13:22:01.820Z,6.96
2017-05-20T13:24:28.499Z,7.16
2017-05-20T13:26:55.177Z,6.66
2017-05-20T13:29:21.874Z,6.52
2017-05-20T13:31:48.872Z,7.92
2017-05-20T13:34:15.576Z,7.32
2017-05-20T13:36:42.253Z,7.12
2017-05-20T13:39:08.956Z,5.20
2017-05-20T13:41:35.628Z,5.12
2017-05-20T13:44:02.343Z,5.76
2017-05-20T13:46:29.011Z,6.24
2017-05-20T13:48:55.689Z,5.40
2017-05-20T13:51:22.364Z,4.08
2017-05-20T13:53:49.042Z,4.18
2017-05-20T13:56:15.745Z,4.58
2017-05-20T13:58:42.420Z,4.32
2017-05-20T14:01:09.129Z,4.52
2017-05-20T14:03:35.805Z,4.34
2017-05-20T14:06:02.480Z,4.72
2017-05-20T14:08:29.153Z,4.96
2017-05-20T14:10:56.295Z,4.48
2017-05-20T14:13:22.968Z,4.68
2017-05-20T14:15:49.642Z,5.10
2017-05-20T14:18:16.349Z,5.73
2017-05-20T14:20:43.032Z,5.02
2017-05-20T14:23:09.762Z,5.68
2017-05-20T14:25:36.446Z,4.53
2017-05-20T14:28:03.119Z,5.12
2017-05-20T14:30:29.797Z,4.56
2017-05-20T14:32:56.466Z,4.56
2017-05-20T14:35:23.173Z,4.63
2017-05-20T14:37:49.849Z,4.16
2017-05-20T14:40:16.552Z,4.55
2017-05-20T14:42:43.234Z,4.35
2017-05-20T14:45:09.949Z,4.50
2017-05-20T14:47:36.633Z,3.93
2017-05-20T14:50:03.308Z,4.10
2017-05-20T14:52:29.988Z,4.43
2017-05-20T14:54:56.718Z,3.90
2017-05-20T14:57:23.396Z,4.12
2017-05-20T14:59:50.077Z,3.97
2017-05-20T15:02:16.780Z,3.30
2017-05-20T15:04:43.465Z,3.28
2017-05-20T15:07:10.184Z,3.27
2017-05-20T15:09:36.873Z,3.20
2017-05-20T15:12:03.552Z,3.52
2017-05-20T15:14:30.232Z,4.17
2017-05-20T15:16:56.916Z,3.52
2017-05-20T15:19:23.596Z,3.38
2017-05-20T15:21:50.276Z,3.42
2017-05-20T15:24:16.993Z,3.55
2017-05-20T15:26:43.672Z,3.42
2017-05-20T15:29:10.349Z,3.28
2017-05-20T15:31:37.028Z,2.80
2017-05-20T15:34:03.704Z,3.10
2017-05-20T15:36:30.388Z,3.02
2017-05-20T15:38:57.072Z,2.67
2017-05-20T15:41:23.788Z,3.07
2017-05-20T15:43:50.466Z,2.90
2017-05-20T15:46:17.149Z,3.90
2017-05-20T15:48:43.837Z,3.17
2017-05-20T15:51:10.521Z,3.20
2017-05-20T15:53:37.208Z,3.20
2017-05-20T15:56:03.893Z,2.92
2017-05-20T15:58:30.582Z,3.02
2017-05-20T16:00:57.260Z,2.82
2017-05-20T16:03:23.973Z,3.38
2017-05-20T16:05:50.664Z,2.83
2017-05-20T16:08:17.349Z,3.12
2017-05-20T16:10:44.032Z,3.40
2017-05-20T16:13:10.716Z,3.07
2017-05-20T16:15:37.425Z,3.25
2017-05-20T16:18:04.108Z,3.40
2017-05-20T16:20:30.841Z,3.18
2017-05-20T16:22:57.525Z,3.07
2017-05-20T16:25:24.209Z,2.75
2017-05-20T16:27:50.889Z,2.92
2017-05-20T16:30:17.565Z,3.25
2017-05-20T16:32:44.268Z,3.77
2017-05-20T16:35:10.940Z,3.72
2017-05-20T16:37:37.693Z,3.67
2017-05-20T16:40:04.373Z,3.85
2017-05-20T16:42:31.084Z,3.97
2017-05-20T16:44:57.765Z,3.50
2017-05-20T16:47:24.444Z,3.18
2017-05-20T16:49:51.138Z,3.82
2017-05-20T16:52:17.820Z,3.43
2017-05-20T16:54:44.524Z,4.05
2017-05-20T16:57:11.206Z,3.48
2017-05-20T16:59:37.911Z,4.10
2017-05-20T17:02:04.598Z,3.32
2017-05-20T17:04:31.316Z,3.33
2017-05-20T17:06:57.993Z,3.45
2017-05-20T17:09:24.666Z,3.67
2017-05-20T17:11:51.352Z,4.17
2017-05-20T17:14:18.030Z,3.60
2017-05-20T17:16:44.734Z,3.75
2017-05-20T17:19:11.415Z,4.07
2017-05-20T17:21:38.115Z,4.95
2017-05-20T17:24:04.792Z,4.02
2017-05-20T17:26:31.499Z,4.35
2017-05-20T17:28:58.169Z,5.63
2017-05-20T17:31:24.857Z,4.08
2017-05-20T17:33:51.534Z,3.67
2017-05-20T17:36:18.207Z,4.35
2017-05-20T17:38:44.926Z,3.65
2017-05-20T17:41:11.605Z,3.97
2017-05-20T17:43:38.315Z,4.13
2017-05-20T17:46:04.993Z,4.20
2017-05-20T17:48:31.685Z,4.35
2017-05-20T17:50:58.364Z,4.20
2017-05-20T17:53:25.079Z,4.42
2017-05-20T17:55:51.752Z,4.00
2017-05-20T17:58:18.421Z,4.68
2017-05-20T18:00:45.096Z,4.20
2017-05-20T18:03:11.775Z,4.40
2017-05-20T18:05:38.475Z,4.22
2017-05-20T18:08:05.239Z,3.98
2017-05-20T18:10:32.080Z,4.43
2017-05-20T18:12:58.760Z,4.58
2017-05-20T18:15:25.493Z,4.90
2017-05-20T18:17:52.426Z,4.53
2017-05-20T18:20:19.279Z,5.27
2017-05-20T18:22:45.969Z,4.55
2017-05-20T18:25:12.656Z,4.85
2017-05-20T18:27:39.350Z,5.38
2017-05-20T18:30:06.148Z,4.90
2017-05-20T18:32:32.933Z,5.33
2017-05-20T18:35:00.123Z,5.07
2017-05-20T18:37:27.160Z,5.05
2017-05-20T18:39:53.994Z,6.45
2017-05-20T18:42:20.697Z,6.00
2017-05-20T18:44:47.438Z,5.68
2017-05-20T18:47:14.186Z,5.30
2017-05-20T18:49:41.049Z,5.58
2017-05-20T18:52:07.804Z,5.15
2017-05-20T18:54:34.854Z,5.30
2017-05-20T18:57:03.769Z,6.50
2017-05-20T18:59:31.014Z,5.30
2017-05-20T19:02:00.741Z,5.45
2017-05-20T19:04:27.967Z,6.68
2017-05-20T19:06:55.103Z,5.60
2017-05-20T19:09:22.971Z,5.30
2017-05-20T19:11:49.728Z,6.35
2017-05-20T19:14:16.404Z,5.93
2017-05-20T19:16:43.186Z,8.22
2017-05-20T19:19:09.861Z,7.20
2017-05-20T19:21:36.539Z,7.03
2017-05-20T19:24:03.331Z,6.65
2017-05-20T19:26:30.004Z,6.68
2017-05-20T19:28:56.705Z,6.13
2017-05-20T19:31:23.384Z,6.62
2017-05-20T19:33:50.092Z,7.07
2017-05-20T19:36:16.789Z,7.73
2017-05-20T19:38:43.485Z,6.25
2017-05-20T19:41:10.167Z,7.25
2017-05-20T19:43:36.848Z,7.88
2017-05-20T19:46:03.523Z,7.53
2017-05-20T19:48:30.195Z,7.63
2017-05-20T19:50:56.892Z,7.27
2017-05-20T19:53:23.569Z,7.75
2017-05-20T19:55:50.248Z,7.83
2017-05-20T19:58:16.932Z,9.50
2017-05-20T20:00:43.609Z,7.95
2017-05-20T20:03:11.349Z,8.77
2017-05-20T20:05:38.079Z,9.53
2017-05-20T20:08:04.766Z,9.22
2017-05-20T20:10:31.538Z,8.82
2017-05-20T20:12:58.219Z,8.20
2017-05-20T20:15:24.932Z,10.20
2017-05-20T20:17:51.617Z,8.92
2017-05-20T20:20:18.304Z,9.22
2017-05-20T20:22:45.014Z,8.73
2017-05-20T20:25:11.689Z,8.47
2017-05-20T20:27:38.393Z,9.92
2017-05-20T20:30:05.072Z,9.22
2017-05-20T20:32:31.792Z,8.85
2017-05-20T20:34:58.484Z,9.27
2017-05-20T20:37:25.168Z,9.23
2017-05-20T20:39:51.851Z,9.98
2017-05-20T20:42:18.529Z,10.22
2017-05-20T20:44:45.236Z,10.98
2017-05-20T20:47:11.917Z,11.48
2017-05-20T20:49:38.628Z,11.55
2017-05-20T20:52:05.310Z,17.33
2017-05-20T20:54:32.034Z,14.30
2017-05-20T20:56:58.716Z,14.88
2017-05-20T20:59:25.413Z,14.97
2017-05-20T21:01:52.100Z,12.75
2017-05-20T21:04:18.792Z,12.00
2017-05-20T21:06:45.475Z,12.67
2017-05-20T21:09:12.166Z,12.67
2017-05-20T21:11:38.876Z,13.05
2017-05-20T21:14:05.562Z,14.93
2017-05-20T21:16:32.300Z,14.50
2017-05-20T21:18:59.534Z,14.60
2017-05-20T21:21:26.220Z,13.70
2017-05-20T21:23:52.913Z,14.65
2017-05-20T21:26:19.600Z,15.35
2017-05-20T21:28:46.295Z,15.73
2017-05-20T21:31:12.978Z,15.63
2017-05-20T21:33:39.670Z,16.50
2017-05-20T21:36:06.632Z,15.88
2017-05-20T21:38:33.369Z,17.08
2017-05-20T21:41:00.056Z,16.83
2017-05-20T21:43:26.773Z,17.50
2017-05-20T21:45:54.429Z,18.63
2017-05-20T21:48:21.112Z,18.67
2017-05-20T21:50:47.792Z,18.10
2017-05-20T21:53:14.477Z,18.67
2017-05-20T21:55:41.166Z,18.93
2017-05-20T21:58:07.853Z,20.17
2017-05-20T22:00:35.135Z,18.58
2017-05-20T22:03:01.825Z,18.82
2017-05-20T22:05:28.528Z,20.08
2017-05-20T22:07:55.226Z,19.53
2017-05-20T22:10:21.950Z,19.02
2017-05-20T22:12:48.641Z,21.08
2017-05-20T22:15:15.329Z,19.43
2017-05-20T22:17:42.016Z,19.73
2017-05-20T22:20:08.702Z,20.08
2017-05-20T22:22:35.384Z,20.12
2017-05-20T22:25:02.078Z,22.00
2017-05-20T22:27:28.768Z,20.83
2017-05-20T22:29:55.456Z,20.87
2017-05-20T22:32:22.168Z,20.92
2017-05-20T22:34:48.860Z,20.65
2017-05-20T22:37:15.576Z,20.90
2017-05-20T22:39:42.264Z,19.92
2017-05-20T22:42:08.950Z,21.20
2017-05-20T22:44:35.641Z,21.42
2017-05-20T22:47:02.336Z,21.60
2017-05-20T22:49:29.021Z,20.93
2017-05-20T22:51:55.705Z,20.40
2017-05-20T22:54:22.395Z,22.93
2017-05-20T22:56:49.087Z,19.92
2017-05-20T22:59:15.813Z,21.45
2017-05-20T23:01:42.504Z,21.65
2017-05-20T23:04:09.224Z,18.42
2017-05-20T23:06:35.912Z,21.18
2017-05-20T23:09:02.600Z,19.68
2017-05-20T23:11:29.289Z,20.97
2017-05-20T23:13:55.973Z,20.57
2017-05-20T23:16:22.674Z,19.98
2017-05-20T23:18:49.351Z,21.73
2017-05-20T23:21:16.038Z,21.17
2017-05-20T23:23:42.723Z,21.97
2017-05-20T23:26:09.452Z,19.00
2017-05-20T23:28:36.141Z,19.68
2017-05-20T23:31:02.832Z,19.52
2017-05-20T23:33:29.526Z,21.38
2017-05-20T23:35:56.217Z,19.80
2017-05-20T23:38:22.913Z,20.65
2017-05-20T23:40:49.596Z,21.90
2017-05-20T23:43:16.293Z,23.67
2017-05-20T23:45:42.977Z,20.88
2017-05-20T23:48:09.672Z,21.03
2017-05-20T23:50:36.384Z,22.77
2017-05-20T23:53:03.060Z,22.10
2017-05-20T23:55:29.765Z,21.58
2017-05-20T23:57:56.449Z,21.95
